createdAt,value
2017-12-20T00:00:06.132Z,11.60
2017-12-20T00:02:34.597Z,9.83
2017-12-20T00:05:02.975Z,10.67
2017-12-20T00:07:30.637Z,9.87
2017-12-20T00:09:59.827Z,9.80
2017-12-20T00:12:27.492Z,10.00
2017-12-20T00:14:55.105Z,9.83
2017-12-20T00:17:22.687Z,10.20
2017-12-20T00:19:50.375Z,9.70
2017-12-20T00:22:18.043Z,10.40
2017-12-20T00:24:45.708Z,9.40
2017-12-20T00:27:13.372Z,9.60
2017-12-20T00:29:41.027Z,10.87
2017-12-20T00:32:08.706Z,10.60
2017-12-20T00:34:37.083Z,11.50
2017-12-20T00:37:04.677Z,9.80
2017-12-20T00:39:32.367Z,9.70
2017-12-20T00:41:59.943Z,9.47
2017-12-20T00:44:27.571Z,9.80
2017-12-20T00:46:55.184Z,9.47
2017-12-20T00:49:23.663Z,9.83
2017-12-20T00:51:51.344Z,11.53
2017-12-20T00:54:19.817Z,10.07
2017-12-20T00:56:47.537Z,10.30
2017-12-20T00:59:15.236Z,9.47
2017-12-20T01:01:42.899Z,9.40
2017-12-20T01:04:10.559Z,11.33
2017-12-20T01:06:38.225Z,8.90
2017-12-20T01:09:05.888Z,8.30
2017-12-20T01:11:33.557Z,8.80
2017-12-20T01:14:01.222Z,8.93
2017-12-20T01:16:28.886Z,8.57
2017-12-20T01:18:57.260Z,8.40
2017-12-20T01:21:24.848Z,9.10
2017-12-20T01:23:53.296Z,9.33
2017-12-20T01:26:20.969Z,9.13
2017-12-20T01:28:48.633Z,10.13
2017-12-20T01:31:16.215Z,9.80
2017-12-20T01:33:44.663Z,9.20
2017-12-20T01:36:12.328Z,9.13
2017-12-20T01:38:39.941Z,8.23
2017-12-20T01:41:07.551Z,9.23
2017-12-20T01:43:35.221Z,8.23
2017-12-20T01:46:03.659Z,10.57
2017-12-20T01:48:31.369Z,9.23
2017-12-20T01:50:59.028Z,8.80
2017-12-20T01:53:26.627Z,10.07
2017-12-20T01:55:54.245Z,9.17
2017-12-20T01:58:21.841Z,9.43
2017-12-20T02:00:49.447Z,9.13
2017-12-20T02:03:17.049Z,11.03
2017-12-20T02:05:45.424Z,9.47
2017-12-20T02:08:13.771Z,9.87
2017-12-20T02:10:41.447Z,8.87
2017-12-20T02:13:09.793Z,9.23
2017-12-20T02:15:37.399Z,9.00
2017-12-20T02:18:04.984Z,8.77
2017-12-20T02:20:33.428Z,9.57
2017-12-20T02:23:01.020Z,9.50
2017-12-20T02:25:29.376Z,10.00
2017-12-20T02:27:56.994Z,10.57
2017-12-20T02:30:24.600Z,8.53
2017-12-20T02:32:52.266Z,9.70
2017-12-20T02:35:19.855Z,10.17
2017-12-20T02:37:47.493Z,10.20
2017-12-20T02:40:15.139Z,8.37
2017-12-20T02:42:42.811Z,9.87
2017-12-20T02:45:10.396Z,10.57
2017-12-20T02:47:38.774Z,9.90
2017-12-20T02:50:07.128Z,10.50
2017-12-20T02:52:35.527Z,9.10
2017-12-20T02:55:03.997Z,9.30
2017-12-20T02:57:31.657Z,8.03
2017-12-20T02:59:59.315Z,8.57
2017-12-20T03:02:26.895Z,8.30
2017-12-20T03:04:55.355Z,8.43
2017-12-20T03:07:23.016Z,8.50
2017-12-20T03:09:50.684Z,8.83
2017-12-20T03:12:18.264Z,8.00
2017-12-20T03:14:46.727Z,7.80
2017-12-20T03:17:14.307Z,8.00
2017-12-20T03:19:42.767Z,8.93
2017-12-20T03:22:10.432Z,7.27
2017-12-20T03:24:38.087Z,8.47
2017-12-20T03:27:05.668Z,7.70
2017-12-20T03:29:34.024Z,8.50
2017-12-20T03:32:01.705Z,8.87
2017-12-20T03:34:29.300Z,8.60
2017-12-20T03:36:56.907Z,7.43
2017-12-20T03:39:24.501Z,8.50
2017-12-20T03:41:52.987Z,7.57
2017-12-20T03:44:21.444Z,6.87
2017-12-20T03:46:49.108Z,8.73
2017-12-20T03:49:16.768Z,9.93
2017-12-20T03:51:44.436Z,8.10
2017-12-20T03:54:13.524Z,9.20
2017-12-20T03:56:41.157Z,9.90
2017-12-20T03:59:08.847Z,10.70
2017-12-20T04:01:36.427Z,8.60
2017-12-20T04:04:04.074Z,10.23
2017-12-20T04:06:31.668Z,10.77
2017-12-20T04:09:00.048Z,9.93
2017-12-20T04:11:28.499Z,9.30
2017-12-20T04:13:56.972Z,9.50
2017-12-20T04:16:24.561Z,8.10
2017-12-20T04:18:53.033Z,9.60
2017-12-20T04:21:20.683Z,9.60
2017-12-20T04:23:48.357Z,9.27
2017-12-20T04:26:16.008Z,9.40
2017-12-20T04:28:43.595Z,9.33
2017-12-20T04:31:11.967Z,9.70
2017-12-20T04:33:40.320Z,9.33
2017-12-20T04:36:07.992Z,9.73
2017-12-20T04:38:35.575Z,9.50
2017-12-20T04:41:04.035Z,9.97
2017-12-20T04:43:31.616Z,9.60
2017-12-20T04:45:59.979Z,9.00
2017-12-20T04:48:27.566Z,9.10
2017-12-20T04:50:55.951Z,10.17
2017-12-20T04:53:24.313Z,9.27
2017-12-20T04:55:51.948Z,9.60
2017-12-20T04:58:19.624Z,9.30
2017-12-20T05:00:47.236Z,10.63
2017-12-20T05:03:14.815Z,10.20
2017-12-20T05:05:42.503Z,11.27
2017-12-20T05:08:10.103Z,10.10
2017-12-20T05:10:37.690Z,10.27
2017-12-20T05:13:05.396Z,10.50
2017-12-20T05:15:33.771Z,10.32
2017-12-20T05:18:01.435Z,9.67
2017-12-20T05:20:29.100Z,8.43
2017-12-20T05:22:56.749Z,10.50
2017-12-20T05:25:24.359Z,9.82
2017-12-20T05:27:51.984Z,9.45
2017-12-20T05:30:20.360Z,8.55
2017-12-20T05:32:47.967Z,10.30
2017-12-20T05:35:15.587Z,10.20
2017-12-20T05:37:43.257Z,10.83
2017-12-20T05:40:11.736Z,12.10
2017-12-20T05:42:39.353Z,12.37
2017-12-20T05:45:06.960Z,13.50
2017-12-20T05:47:34.620Z,10.73
2017-12-20T05:50:02.284Z,12.73
2017-12-20T05:52:29.943Z,12.20
2017-12-20T05:54:57.556Z,12.43
2017-12-20T05:57:25.177Z,11.33
2017-12-20T05:59:52.833Z,12.27
2017-12-20T06:02:20.491Z,11.17
2017-12-20T06:04:48.156Z,12.20
2017-12-20T06:07:15.819Z,10.83
2017-12-20T06:09:43.426Z,13.60
2017-12-20T06:12:11.017Z,14.67
2017-12-20T06:14:38.708Z,12.97
2017-12-20T06:17:06.367Z,13.77
2017-12-20T06:19:35.460Z,12.50
2017-12-20T06:22:03.953Z,14.40
2017-12-20T06:24:31.540Z,11.90
2017-12-20T06:26:59.983Z,13.60
2017-12-20T06:29:27.661Z,11.93
2017-12-20T06:31:55.273Z,12.27
2017-12-20T06:34:22.876Z,10.73
2017-12-20T06:36:50.519Z,10.63
2017-12-20T06:39:18.112Z,10.70
2017-12-20T06:41:46.491Z,11.20
2017-12-20T06:44:14.102Z,11.27
2017-12-20T06:46:41.711Z,11.70
2017-12-20T06:49:10.079Z,12.33
2017-12-20T06:51:37.737Z,11.23
2017-12-20T06:54:05.404Z,11.33
2017-12-20T06:56:33.068Z,11.40
2017-12-20T06:59:00.740Z,13.80
2017-12-20T07:01:29.099Z,11.70
2017-12-20T07:03:56.707Z,11.80
2017-12-20T07:06:24.437Z,12.20
2017-12-20T07:08:52.109Z,12.00
2017-12-20T07:11:19.760Z,12.93
2017-12-20T07:13:48.244Z,12.88
2017-12-20T07:16:15.916Z,12.20
2017-12-20T07:18:43.523Z,13.20
2017-12-20T07:21:11.149Z,13.93
2017-12-20T07:23:38.895Z,15.88
2017-12-20T07:26:07.271Z,15.23
2017-12-20T07:28:34.931Z,14.67
2017-12-20T07:31:02.602Z,14.90
2017-12-20T07:33:30.197Z,15.20
2017-12-20T07:35:57.803Z,13.30
2017-12-20T07:38:25.388Z,13.83
2017-12-20T07:40:52.996Z,13.97
2017-12-20T07:43:20.618Z,13.37
2017-12-20T07:45:48.267Z,11.97
2017-12-20T07:48:15.848Z,12.33
2017-12-20T07:50:44.312Z,11.10
2017-12-20T07:53:11.895Z,11.70
2017-12-20T07:55:40.267Z,12.23
2017-12-20T07:58:09.352Z,11.43
2017-12-20T08:00:37.020Z,11.80
2017-12-20T08:03:05.395Z,10.90
2017-12-20T08:05:32.985Z,12.63
2017-12-20T08:08:01.430Z,10.10
2017-12-20T08:10:29.808Z,11.63
2017-12-20T08:12:57.407Z,9.80
2017-12-20T08:15:24.995Z,10.13
2017-12-20T08:17:52.700Z,9.43
2017-12-20T08:20:20.361Z,8.40
2017-12-20T08:22:48.020Z,8.53
2017-12-20T08:25:15.688Z,7.77
2017-12-20T08:27:43.297Z,9.03
2017-12-20T08:30:10.911Z,9.07
2017-12-20T08:32:38.581Z,8.00
2017-12-20T08:35:06.241Z,8.30
2017-12-20T08:37:33.905Z,7.53
2017-12-20T08:40:01.569Z,7.27
2017-12-20T08:42:29.156Z,7.80
2017-12-20T08:44:57.528Z,7.37
2017-12-20T08:47:25.872Z,6.47
2017-12-20T08:49:53.539Z,8.60
2017-12-20T08:52:21.212Z,7.40
2017-12-20T08:54:48.825Z,6.83
2017-12-20T08:57:16.403Z,7.83
2017-12-20T08:59:44.092Z,7.70
2017-12-20T09:02:11.756Z,7.17
2017-12-20T09:04:39.416Z,7.90
2017-12-20T09:07:06.996Z,7.63
2017-12-20T09:09:35.465Z,7.30
2017-12-20T09:12:03.047Z,7.27
2017-12-20T09:14:31.499Z,7.50
2017-12-20T09:16:59.106Z,8.63
2017-12-20T09:19:26.692Z,7.87
2017-12-20T09:21:54.400Z,7.37
2017-12-20T09:24:22.052Z,8.50
2017-12-20T09:26:49.665Z,9.20
2017-12-20T09:29:17.272Z,9.07
2017-12-20T09:31:44.882Z,8.60
2017-12-20T09:34:12.473Z,9.70
2017-12-20T09:36:40.103Z,10.10
2017-12-20T09:39:07.729Z,9.30
2017-12-20T09:41:35.346Z,9.07
2017-12-20T09:44:03.052Z,15.30
2017-12-20T09:46:30.668Z,18.90
2017-12-20T09:48:58.271Z,22.33
2017-12-20T09:51:26.000Z,15.83
2017-12-20T09:53:53.699Z,14.30
2017-12-20T09:56:21.359Z,13.33
2017-12-20T09:58:49.024Z,11.87
2017-12-20T10:01:16.687Z,11.40
2017-12-20T10:03:44.301Z,9.83
2017-12-20T10:06:11.976Z,12.80
2017-12-20T10:08:39.685Z,17.13
2017-12-20T10:11:08.039Z,10.93
2017-12-20T10:13:35.666Z,11.30
2017-12-20T10:16:03.250Z,9.00
2017-12-20T10:18:30.940Z,13.70
2017-12-20T10:20:58.613Z,11.50
2017-12-20T10:23:27.715Z,10.50
2017-12-20T10:25:56.177Z,9.60
2017-12-20T10:28:23.911Z,9.77
2017-12-20T10:30:51.520Z,9.83
2017-12-20T10:33:19.883Z,8.83
2017-12-20T10:35:47.547Z,11.37
2017-12-20T10:38:15.136Z,8.50
2017-12-20T10:40:43.587Z,9.57
2017-12-20T10:43:11.255Z,8.13
2017-12-20T10:45:38.860Z,8.47
2017-12-20T10:48:06.459Z,9.37
2017-12-20T10:50:34.044Z,7.83
2017-12-20T10:53:01.696Z,9.03
2017-12-20T10:55:30.088Z,8.43
2017-12-20T10:57:57.760Z,8.33
2017-12-20T11:00:26.228Z,8.23
2017-12-20T11:02:53.849Z,7.37
2017-12-20T11:05:21.457Z,8.03
2017-12-20T11:07:49.804Z,9.83
2017-12-20T11:10:17.486Z,9.50
2017-12-20T11:12:45.068Z,8.97
2017-12-20T11:15:13.518Z,8.67
2017-12-20T11:17:41.104Z,8.00
2017-12-20T11:20:09.575Z,9.33
2017-12-20T11:22:37.235Z,8.57
2017-12-20T11:25:04.830Z,7.90
2017-12-20T11:27:33.175Z,8.13
2017-12-20T11:30:00.793Z,13.57
2017-12-20T11:32:28.409Z,8.17
2017-12-20T11:34:56.884Z,8.10
2017-12-20T11:37:24.471Z,10.87
2017-12-20T11:39:52.815Z,8.70
2017-12-20T11:42:20.415Z,7.60
2017-12-20T11:44:48.759Z,7.10
2017-12-20T11:47:16.363Z,7.83
2017-12-20T11:49:43.957Z,8.00
2017-12-20T11:52:11.572Z,7.97
2017-12-20T11:54:40.037Z,7.40
2017-12-20T11:57:07.635Z,6.50
2017-12-20T11:59:35.247Z,7.00
2017-12-20T12:02:02.921Z,6.47
2017-12-20T12:04:31.301Z,6.03
2017-12-20T12:06:59.692Z,6.83
2017-12-20T12:09:28.056Z,7.60
2017-12-20T12:11:55.713Z,6.53
2017-12-20T12:14:23.330Z,7.40
2017-12-20T12:16:50.944Z,6.80
2017-12-20T12:19:19.415Z,7.30
2017-12-20T12:21:46.999Z,8.17
2017-12-20T12:24:15.467Z,6.33
2017-12-20T12:26:43.137Z,7.73
2017-12-20T12:29:11.612Z,9.10
2017-12-20T12:31:40.703Z,7.13
2017-12-20T12:34:08.387Z,7.37
2017-12-20T12:36:36.727Z,8.07
2017-12-20T12:39:04.312Z,7.20
2017-12-20T12:41:31.908Z,8.90
2017-12-20T12:43:59.541Z,7.80
2017-12-20T12:46:28.012Z,8.53
2017-12-20T12:48:55.644Z,8.60
2017-12-20T12:51:23.405Z,7.40
2017-12-20T12:53:50.999Z,7.10
2017-12-20T12:56:18.660Z,9.07
2017-12-20T12:58:46.249Z,8.00
2017-12-20T13:01:14.628Z,8.27
2017-12-20T13:03:42.977Z,7.67
2017-12-20T13:06:10.651Z,9.20
2017-12-20T13:08:38.255Z,9.00
2017-12-20T13:11:05.876Z,8.03
2017-12-20T13:13:34.244Z,9.60
2017-12-20T13:16:01.916Z,9.87
2017-12-20T13:18:29.528Z,9.87
2017-12-20T13:20:57.112Z,11.57
2017-12-20T13:23:24.795Z,14.23
2017-12-20T13:25:52.462Z,12.80
2017-12-20T13:28:20.133Z,11.17
2017-12-20T13:30:49.286Z,12.57
2017-12-20T13:33:16.993Z,13.00
2017-12-20T13:35:44.579Z,10.83
2017-12-20T13:38:12.927Z,12.93
2017-12-20T13:40:40.588Z,13.47
2017-12-20T13:43:09.676Z,11.93
2017-12-20T13:45:37.348Z,13.00
2017-12-20T13:48:04.940Z,12.97
2017-12-20T13:50:32.570Z,13.70
2017-12-20T13:53:00.231Z,15.20
2017-12-20T13:55:27.860Z,14.03
2017-12-20T13:57:55.559Z,13.90
2017-12-20T14:00:23.224Z,13.10
2017-12-20T14:02:50.815Z,13.40
2017-12-20T14:05:18.404Z,15.53
2017-12-20T14:07:46.012Z,14.07
2017-12-20T14:10:15.108Z,14.20
2017-12-20T14:12:43.479Z,14.20
2017-12-20T14:15:11.076Z,12.60
2017-12-20T14:17:39.447Z,14.73
2017-12-20T14:20:07.907Z,14.80
2017-12-20T14:22:35.567Z,15.33
2017-12-20T14:25:03.161Z,13.00
2017-12-20T14:27:31.540Z,15.37
2017-12-20T14:29:59.904Z,14.07
2017-12-20T14:32:28.367Z,16.10
2017-12-20T14:34:57.568Z,15.00
2017-12-20T14:37:25.163Z,15.20
2017-12-20T14:39:52.776Z,14.30
2017-12-20T14:42:20.451Z,15.47
2017-12-20T14:44:48.115Z,14.03
2017-12-20T14:47:15.844Z,14.73
2017-12-20T14:49:43.543Z,13.40
2017-12-20T14:52:11.132Z,15.07
2017-12-20T14:54:39.503Z,15.63
2017-12-20T14:57:07.968Z,15.40
2017-12-20T14:59:35.628Z,14.20
2017-12-20T15:02:03.293Z,15.63
2017-12-20T15:04:31.770Z,17.63
2017-12-20T15:07:01.016Z,15.27
2017-12-20T15:09:28.636Z,15.30
2017-12-20T15:11:56.291Z,17.00
2017-12-20T15:14:23.959Z,15.80
2017-12-20T15:16:51.571Z,17.23
2017-12-20T15:19:19.151Z,17.13
2017-12-20T15:21:46.765Z,18.07
2017-12-20T15:24:15.227Z,16.70
2017-12-20T15:26:42.888Z,17.20
2017-12-20T15:29:10.479Z,18.90
2017-12-20T15:31:38.847Z,21.13
2017-12-20T15:34:07.199Z,21.97
2017-12-20T15:36:34.877Z,19.00
2017-12-20T15:39:03.223Z,18.47
2017-12-20T15:41:30.907Z,18.53
2017-12-20T15:43:58.585Z,19.07
2017-12-20T15:46:27.055Z,21.00
2017-12-20T15:48:54.640Z,19.63
2017-12-20T15:51:23.015Z,20.60
2017-12-20T15:53:51.479Z,20.00
2017-12-20T15:56:19.083Z,20.80
2017-12-20T15:58:46.703Z,21.10
2017-12-20T16:01:14.334Z,17.67
2017-12-20T16:03:41.920Z,19.17
2017-12-20T16:06:09.518Z,19.53
2017-12-20T16:08:37.890Z,19.10
2017-12-20T16:11:06.347Z,20.90
2017-12-20T16:13:34.021Z,25.00
2017-12-20T16:16:01.607Z,22.80
2017-12-20T16:18:29.263Z,20.70
2017-12-20T16:20:57.619Z,22.50
2017-12-20T16:23:26.000Z,21.60
2017-12-20T16:25:53.592Z,21.57
2017-12-20T16:28:21.219Z,22.33
2017-12-20T16:30:49.604Z,22.73
2017-12-20T16:33:17.224Z,23.13
2017-12-20T16:35:44.981Z,20.97
2017-12-20T16:38:12.587Z,24.10
2017-12-20T16:40:40.172Z,21.60
2017-12-20T16:43:08.523Z,21.53
2017-12-20T16:45:36.136Z,20.17
2017-12-20T16:48:03.757Z,20.30
2017-12-20T16:50:32.949Z,24.00
2017-12-20T16:53:00.543Z,20.53
2017-12-20T16:55:28.998Z,19.73
2017-12-20T16:57:57.381Z,19.57
2017-12-20T17:00:25.851Z,20.47
2017-12-20T17:02:53.514Z,22.53
2017-12-20T17:05:21.139Z,22.53
2017-12-20T17:07:48.720Z,20.23
2017-12-20T17:10:16.399Z,20.20
2017-12-20T17:12:44.047Z,22.33
2017-12-20T17:15:11.659Z,20.63
2017-12-20T17:17:40.018Z,20.60
2017-12-20T17:20:08.387Z,19.50
2017-12-20T17:22:35.973Z,20.40
2017-12-20T17:25:04.347Z,20.20
2017-12-20T17:27:32.807Z,23.10
2017-12-20T17:30:00.399Z,21.83
2017-12-20T17:32:28.017Z,23.00
2017-12-20T17:34:55.688Z,22.57
2017-12-20T17:37:23.304Z,22.47
2017-12-20T17:39:50.915Z,20.97
2017-12-20T17:42:18.576Z,18.83
2017-12-20T17:44:46.172Z,20.33
2017-12-20T17:47:14.619Z,20.10
2017-12-20T17:49:42.279Z,21.60
2017-12-20T17:52:10.010Z,18.50
2017-12-20T17:54:37.588Z,18.93
2017-12-20T17:57:05.268Z,21.77
2017-12-20T17:59:32.864Z,21.23
2017-12-20T18:02:01.248Z,20.23
2017-12-20T18:04:29.614Z,20.30
2017-12-20T18:06:57.968Z,21.23
2017-12-20T18:09:25.575Z,20.80
2017-12-20T18:11:53.194Z,21.97
2017-12-20T18:14:20.856Z,19.03
2017-12-20T18:16:48.449Z,18.27
2017-12-20T18:19:16.904Z,19.50
2017-12-20T18:21:45.252Z,17.83
2017-12-20T18:24:12.948Z,18.67
2017-12-20T18:26:40.531Z,19.17
2017-12-20T18:29:08.903Z,16.47
2017-12-20T18:31:37.251Z,16.23
2017-12-20T18:34:04.859Z,19.77
2017-12-20T18:36:32.440Z,19.93
2017-12-20T18:39:00.063Z,19.53
2017-12-20T18:41:28.418Z,20.00
2017-12-20T18:43:56.092Z,16.50
2017-12-20T18:46:24.628Z,19.17
2017-12-20T18:48:52.207Z,15.93
2017-12-20T18:51:20.424Z,18.30
2017-12-20T18:53:48.776Z,16.23
2017-12-20T18:56:16.383Z,17.40
2017-12-20T18:58:44.828Z,18.40
2017-12-20T19:01:12.484Z,16.90
2017-12-20T19:03:40.147Z,17.10
2017-12-20T19:06:07.815Z,18.10
2017-12-20T19:08:36.195Z,18.83
2017-12-20T19:11:03.852Z,17.00
2017-12-20T19:13:31.448Z,15.97
2017-12-20T19:15:59.849Z,16.53
2017-12-20T19:18:27.431Z,17.40
2017-12-20T19:20:55.021Z,17.67
2017-12-20T19:23:22.683Z,15.90
2017-12-20T19:25:50.348Z,16.77
2017-12-20T19:28:18.007Z,15.90
2017-12-20T19:30:45.674Z,16.50
2017-12-20T19:33:13.288Z,16.67
2017-12-20T19:35:40.895Z,16.57
2017-12-20T19:38:08.499Z,15.93
2017-12-20T19:40:36.124Z,15.00
2017-12-20T19:43:04.496Z,16.50
2017-12-20T19:45:32.125Z,15.50
2017-12-20T19:47:59.737Z,16.03
2017-12-20T19:50:28.087Z,15.57
2017-12-20T19:52:55.747Z,15.57
2017-12-20T19:55:23.340Z,15.00
2017-12-20T19:57:51.687Z,14.97
2017-12-20T20:00:19.386Z,16.63
2017-12-20T20:02:47.746Z,15.00
2017-12-20T20:05:15.353Z,17.00
2017-12-20T20:07:42.936Z,15.97
2017-12-20T20:10:10.648Z,15.40
2017-12-20T20:12:39.107Z,15.00
2017-12-20T20:15:06.776Z,14.83
2017-12-20T20:17:35.155Z,14.20
2017-12-20T20:20:02.820Z,15.07
2017-12-20T20:22:30.489Z,13.90
2017-12-20T20:24:58.861Z,14.53
2017-12-20T20:27:26.439Z,15.77
2017-12-20T20:29:54.907Z,15.70
2017-12-20T20:32:22.567Z,14.93
2017-12-20T20:34:50.147Z,13.93
2017-12-20T20:37:18.603Z,15.80
2017-12-20T20:39:46.192Z,16.90
2017-12-20T20:42:14.566Z,16.43
2017-12-20T20:44:42.914Z,16.10
2017-12-20T20:47:10.523Z,16.90
2017-12-20T20:49:38.872Z,15.83
2017-12-20T20:52:07.240Z,16.40
2017-12-20T20:54:34.823Z,16.40
2017-12-20T20:57:03.288Z,16.77
2017-12-20T20:59:30.867Z,15.33
2017-12-20T21:01:59.341Z,15.37
2017-12-20T21:04:28.436Z,17.37
2017-12-20T21:06:57.594Z,14.00
2017-12-20T21:09:25.184Z,14.80
2017-12-20T21:11:52.835Z,16.30
2017-12-20T21:14:20.427Z,15.97
2017-12-20T21:16:48.077Z,14.87
2017-12-20T21:19:16.451Z,14.17
2017-12-20T21:21:44.115Z,17.60
2017-12-20T21:24:11.724Z,13.63
2017-12-20T21:26:39.308Z,13.70
2017-12-20T21:29:06.921Z,14.07
2017-12-20T21:31:35.384Z,14.00
2017-12-20T21:34:03.864Z,12.30
2017-12-20T21:36:32.211Z,12.70
2017-12-20T21:38:59.913Z,13.10
2017-12-20T21:41:28.995Z,12.87
2017-12-20T21:43:56.732Z,12.23
2017-12-20T21:46:24.329Z,11.70
2017-12-20T21:48:53.527Z,10.67
2017-12-20T21:51:21.258Z,9.80
2017-12-20T21:53:49.571Z,11.07
2017-12-20T21:56:18.679Z,10.47
2017-12-20T21:58:46.259Z,11.50
2017-12-20T22:01:14.712Z,10.47
2017-12-20T22:03:43.087Z,11.50
2017-12-20T22:06:10.752Z,10.03
2017-12-20T22:08:38.411Z,11.20
2017-12-20T22:11:06.011Z,9.37
2017-12-20T22:13:34.455Z,9.50
2017-12-20T22:16:02.120Z,8.07
2017-12-20T22:18:30.505Z,8.17
2017-12-20T22:20:58.984Z,8.20
2017-12-20T22:23:28.175Z,8.03
2017-12-20T22:25:55.839Z,8.20
2017-12-20T22:28:23.508Z,8.53
2017-12-20T22:30:52.706Z,9.83
2017-12-20T22:33:21.079Z,8.30
2017-12-20T22:35:48.748Z,10.00
2017-12-20T22:38:17.851Z,9.70
2017-12-20T22:40:46.930Z,8.73
2017-12-20T22:43:15.291Z,9.57
2017-12-20T22:45:42.877Z,8.50
2017-12-20T22:48:11.987Z,9.90
2017-12-20T22:50:39.649Z,10.30
2017-12-20T22:53:07.262Z,9.30
2017-12-20T22:55:34.843Z,9.80
2017-12-20T22:58:02.450Z,9.00
2017-12-20T23:00:32.586Z,7.73
2017-12-20T23:03:00.203Z,9.60
2017-12-20T23:05:27.788Z,8.27
2017-12-20T23:07:56.243Z,7.23
2017-12-20T23:10:23.811Z,6.60
2017-12-20T23:12:52.178Z,6.37
2017-12-20T23:15:19.847Z,6.50
2017-12-20T23:17:47.448Z,7.70
2017-12-20T23:20:15.023Z,7.30
2017-12-20T23:22:42.737Z,7.60
2017-12-20T23:25:11.107Z,7.30
2017-12-20T23:27:38.679Z,6.77
2017-12-20T23:30:06.281Z,6.70
2017-12-20T23:32:33.900Z,6.70
2017-12-20T23:35:02.375Z,6.50
2017-12-20T23:37:30.044Z,7.00
2017-12-20T23:39:57.709Z,7.37
2017-12-20T23:42:25.288Z,7.70
2017-12-20T23:44:53.753Z,6.23
2017-12-20T23:47:22.095Z,6.07
2017-12-20T23:49:49.787Z,7.13
2017-12-20T23:52:17.372Z,5.77
2017-12-20T23:54:45.827Z,6.60
2017-12-20T23:57:13.402Z,5.63
2017-12-20T23:59:40.999Z,7.60
